Time;durP1;ratioP1;P1;durP2;ratioP2;P2;SDS_P1;SDS_P2;PMS_P1;PMS_P2;Temp;Humidity;BMP_temperature;BMP_pressure;BME280_temperature;BME280_humidity;BME280_pressure;Samples;Min_cycle;Max_cycle;Signal;HPM_P1;HPM_P2
2024/03/06 00:00:41;;;;;;;5.85;2.40;;;7.30;99.90;;;;;;5093432;28;20078;-72
2024/03/06 00:03:07;;;;;;;5.30;2.58;;;7.30;99.90;;;;;;5094205;28;20069;-71
2024/03/06 00:05:32;;;;;;;4.68;2.38;;;7.30;99.90;;;;;;5093225;28;20385;-72
2024/03/06 00:07:58;;;;;;;5.03;2.45;;;7.40;99.90;;;;;;5095074;28;20056;-72
2024/03/06 00:10:23;;;;;;;5.05;2.58;;;7.40;99.90;;;;;;5093976;28;20473;-71
2024/03/06 00:12:49;;;;;;;5.05;2.72;;;7.40;99.90;;;;;;5093159;28;20369;-71
2024/03/06 00:15:15;;;;;;;4.40;2.63;;;7.40;99.90;;;;;;5094587;28;20043;-71
2024/03/06 00:17:41;;;;;;;5.20;2.75;;;7.30;99.90;;;;;;5092962;28;20032;-72
2024/03/06 00:20:09;;;;;;;4.45;2.40;;;7.40;99.90;;;;;;5110783;28;20118;-71
2024/03/06 00:22:34;;;;;;;4.15;2.47;;;7.40;99.90;;;;;;5092913;28;20028;-71
2024/03/06 00:25:00;;;;;;;4.28;2.55;;;7.30;99.90;;;;;;5094757;28;20081;-70
2024/03/06 00:27:25;;;;;;;5.57;2.97;;;7.40;99.90;;;;;;5093675;28;20023;-72
2024/03/06 00:29:51;;;;;;;6.97;3.20;;;7.40;99.90;;;;;;5093045;28;20115;-71
2024/03/06 00:32:16;;;;;;;5.15;2.88;;;7.40;99.90;;;;;;5093847;28;20025;-71
2024/03/06 00:34:42;;;;;;;5.50;2.70;;;7.40;99.90;;;;;;5093480;28;20449;-71
2024/03/06 00:37:07;;;;;;;4.15;2.53;;;7.30;99.90;;;;;;5094695;28;20540;-71
2024/03/06 00:39:33;;;;;;;3.85;2.53;;;7.30;99.90;;;;;;5093885;28;20024;-72
2024/03/06 00:41:59;;;;;;;7.00;2.70;;;7.40;99.90;;;;;;5110263;28;20034;-71
2024/03/06 00:44:24;;;;;;;5.55;2.35;;;7.30;99.90;;;;;;5092876;28;20109;-71
2024/03/06 00:46:50;;;;;;;5.38;3.00;;;7.30;99.90;;;;;;5093784;28;20035;-71
2024/03/06 00:49:16;;;;;;;3.90;2.40;;;7.30;99.90;;;;;;5093201;28;20358;-71
2024/03/06 00:51:41;;;;;;;4.65;2.40;;;7.30;99.90;;;;;;5092353;28;20069;-71
2024/03/06 00:54:07;;;;;;;7.40;3.22;;;7.30;99.90;;;;;;5093132;28;20400;-71
2024/03/06 00:56:32;;;;;;;6.40;2.85;;;7.40;99.90;;;;;;5092317;28;20453;-71
2024/03/06 00:58:58;;;;;;;5.13;2.95;;;7.40;99.90;;;;;;5110139;28;20031;-71
2024/03/06 01:01:23;;;;;;;8.00;3.22;;;7.40;99.90;;;;;;5093086;28;20062;-71
2024/03/06 01:03:49;;;;;;;5.50;2.92;;;7.40;99.90;;;;;;5092359;28;20579;-72
2024/03/06 01:06:15;;;;;;;4.57;2.63;;;7.40;99.90;;;;;;5092608;28;20036;-71
2024/03/06 01:08:40;;;;;;;7.20;2.95;;;7.30;99.90;;;;;;5093730;28;20073;-71
2024/03/06 01:11:06;;;;;;;6.45;3.28;;;7.40;99.90;;;;;;5109846;28;20024;-72
2024/03/06 01:13:32;;;;;;;4.90;2.72;;;7.40;99.90;;;;;;5092019;28;20036;-72
2024/03/06 01:15:58;;;;;;;6.15;2.83;;;7.40;99.90;;;;;;5092437;28;20079;-71
2024/03/06 01:18:23;;;;;;;5.10;2.60;;;7.40;99.90;;;;;;5094026;28;20031;-72
2024/03/06 01:20:49;;;;;;;5.40;2.85;;;7.50;99.90;;;;;;5109002;28;20259;-72
2024/03/06 01:23:14;;;;;;;6.25;2.65;;;7.50;99.90;;;;;;5092793;28;20130;-72
2024/03/06 01:25:40;;;;;;;5.28;3.13;;;7.50;99.90;;;;;;5093022;28;20377;-72
2024/03/06 01:28:06;;;;;;;6.90;3.13;;;7.40;99.90;;;;;;5109535;28;20043;-72
2024/03/06 01:30:31;;;;;;;9.00;2.92;;;7.50;99.90;;;;;;5092004;28;20491;-74
2024/03/06 01:32:57;;;;;;;5.35;2.83;;;7.40;99.90;;;;;;5093256;28;20028;-72
2024/03/06 01:35:24;;;;;;;4.93;3.20;;;7.40;99.90;;;;;;5093648;28;20503;-72
2024/03/06 01:37:49;;;;;;;5.28;2.90;;;7.40;99.90;;;;;;5091675;28;20052;-72
2024/03/06 01:40:15;;;;;;;5.65;2.78;;;7.40;99.90;;;;;;5109245;28;20063;-71
2024/03/06 01:42:41;;;;;;;7.03;2.80;;;7.40;99.90;;;;;;5092801;28;20461;-71
2024/03/06 01:45:07;;;;;;;5.22;3.05;;;7.30;99.90;;;;;;5090805;28;20093;-71
2024/03/06 01:47:33;;;;;;;6.32;3.10;;;7.30;99.90;;;;;;5091583;28;20032;-73
2024/03/06 01:49:59;;;;;;;5.75;3.33;;;7.40;99.90;;;;;;5093346;28;20106;-71
2024/03/06 01:52:25;;;;;;;5.25;2.78;;;7.40;99.90;;;;;;5093590;28;20089;-71
2024/03/06 01:54:51;;;;;;;6.22;2.80;;;7.40;99.90;;;;;;5091055;28;20032;-71
2024/03/06 01:57:19;;;;;;;5.85;3.05;;;7.40;99.90;;;;;;5108975;28;20101;-71
2024/03/06 01:59:45;;;;;;;9.82;3.15;;;7.40;99.90;;;;;;5092215;28;20024;-71
2024/03/06 02:02:13;;;;;;;3.80;3.13;;;7.40;99.90;;;;;;5091890;28;20028;-71
2024/03/06 02:04:39;;;;;;;6.55;3.28;;;7.40;99.90;;;;;;5091000;28;20036;-71
2024/03/06 02:07:10;;;;;;;9.18;3.60;;;7.40;99.90;;;;;;5093126;28;20035;-70
2024/03/06 02:09:36;;;;;;;7.33;3.10;;;7.40;99.90;;;;;;5091205;28;20389;-72
2024/03/06 02:12:03;;;;;;;5.20;3.17;;;7.30;99.90;;;;;;5091653;28;20287;-71
2024/03/06 02:14:29;;;;;;;4.88;3.50;;;7.40;99.90;;;;;;5091510;28;20557;-71
2024/03/06 02:16:54;;;;;;;4.32;3.15;;;7.40;99.90;;;;;;5092191;28;20016;-71
2024/03/06 02:19:20;;;;;;;6.10;3.60;;;7.40;99.90;;;;;;5108620;28;20385;-71
2024/03/06 02:21:46;;;;;;;7.95;3.90;;;7.40;99.90;;;;;;5090830;28;20020;-71
2024/03/06 02:24:13;;;;;;;6.45;3.40;;;7.40;99.90;;;;;;5091418;28;20077;-71
2024/03/06 02:26:39;;;;;;;5.78;3.67;;;7.40;99.90;;;;;;5107656;28;20400;-72
2024/03/06 02:29:05;;;;;;;6.00;3.65;;;7.40;99.90;;;;;;5092745;28;20036;-71
2024/03/06 02:31:31;;;;;;;6.50;3.22;;;7.40;99.90;;;;;;5092723;28;20020;-71
2024/03/06 02:33:58;;;;;;;6.05;3.67;;;7.40;99.90;;;;;;5090558;28;20090;-71
2024/03/06 02:36:24;;;;;;;7.75;3.88;;;7.40;99.90;;;;;;5091326;28;20046;-70
2024/03/06 02:38:49;;;;;;;7.20;3.80;;;7.40;99.90;;;;;;5091498;28;20512;-71
2024/03/06 02:41:15;;;;;;;7.03;3.80;;;7.30;99.90;;;;;;5091168;28;20032;-71
2024/03/06 02:43:42;;;;;;;8.55;3.95;;;7.30;99.90;;;;;;5107075;28;20044;-72
2024/03/06 02:46:08;;;;;;;6.55;3.80;;;7.30;99.90;;;;;;5091021;28;20036;-72
2024/03/06 02:48:34;;;;;;;6.72;3.55;;;7.30;99.90;;;;;;5091232;28;20087;-73
2024/03/06 02:51:00;;;;;;;5.47;3.67;;;7.30;99.90;;;;;;5092159;28;20051;-72
2024/03/06 02:53:26;;;;;;;6.40;3.42;;;7.30;99.90;;;;;;5091333;28;20393;-71
2024/03/06 02:55:52;;;;;;;7.43;3.90;;;7.20;99.90;;;;;;5091587;28;20055;-71
2024/03/06 02:58:17;;;;;;;6.55;3.42;;;7.20;99.90;;;;;;5090988;28;20055;-71
2024/03/06 03:00:43;;;;;;;5.85;4.03;;;7.20;99.90;;;;;;5090458;28;20020;-72
2024/03/06 03:03:11;;;;;;;6.72;3.40;;;7.20;99.90;;;;;;5092126;28;20024;-71
2024/03/06 03:05:37;;;;;;;8.02;3.47;;;7.20;99.90;;;;;;5090609;28;20032;-73
2024/03/06 03:08:03;;;;;;;10.63;4.35;;;7.10;99.90;;;;;;5092236;28;20085;-71
2024/03/06 03:10:29;;;;;;;4.63;3.47;;;7.20;99.90;;;;;;5092212;28;20028;-71
2024/03/06 03:12:55;;;;;;;5.53;3.58;;;7.10;99.90;;;;;;5091744;28;20736;-71
2024/03/06 03:15:21;;;;;;;5.78;3.33;;;7.10;99.90;;;;;;5090764;28;20445;-71
2024/03/06 03:17:46;;;;;;;5.53;3.33;;;7.10;99.90;;;;;;5091285;28;20036;-71
2024/03/06 03:20:12;;;;;;;8.23;3.58;;;7.10;99.90;;;;;;5091035;28;20165;-71
2024/03/06 03:22:42;;;;;;;6.85;3.25;;;7.10;99.90;;;;;;5091297;28;20457;-74
2024/03/06 03:25:09;;;;;;;5.90;3.60;;;7.10;99.90;;;;;;5090774;28;20123;-71
2024/03/06 03:27:36;;;;;;;6.90;3.42;;;7.10;99.90;;;;;;5090903;28;20032;-71
2024/03/06 03:35:28;;;;;;;4.60;3.63;;;7.00;99.90;;;;;;4991065;28;20054;-73
2024/03/06 03:37:55;;;;;;;6.22;3.55;;;7.00;99.90;;;;;;4975833;28;20035;-73
2024/03/06 03:40:21;;;;;;;6.97;3.55;;;7.00;99.90;;;;;;4975373;28;20382;-73
2024/03/06 03:42:47;;;;;;;7.28;3.60;;;7.00;99.90;;;;;;4975317;28;20022;-73
2024/03/06 03:45:13;;;;;;;9.40;4.15;;;7.00;99.90;;;;;;4992268;28;20058;-73
2024/03/06 03:47:38;;;;;;;7.55;3.80;;;7.00;99.90;;;;;;4992950;28;20030;-72
2024/03/06 03:50:04;;;;;;;5.78;3.80;;;7.00;99.90;;;;;;4975456;28;20031;-73
2024/03/06 03:52:30;;;;;;;6.57;4.07;;;7.00;99.90;;;;;;4992711;28;20049;-73
2024/03/06 03:54:55;;;;;;;5.90;4.00;;;7.00;99.90;;;;;;4975474;28;20038;-73
2024/03/06 03:57:21;;;;;;;7.28;3.65;;;7.00;99.90;;;;;;4974924;28;20062;-73
2024/03/06 03:59:47;;;;;;;6.55;4.00;;;6.90;99.90;;;;;;4975384;28;20117;-73
2024/03/06 04:02:12;;;;;;;8.32;4.28;;;7.00;99.90;;;;;;4974353;28;20085;-73
2024/03/06 04:04:38;;;;;;;8.25;4.30;;;7.00;99.90;;;;;;4975048;28;20383;-73
2024/03/06 04:07:05;;;;;;;8.18;4.53;;;6.90;99.90;;;;;;4975503;28;20034;-73
2024/03/06 04:09:32;;;;;;;7.35;4.88;;;6.90;99.90;;;;;;4994405;28;20076;-73
2024/03/06 04:11:58;;;;;;;8.00;4.75;;;6.90;99.90;;;;;;4996247;28;20027;-73
2024/03/06 04:14:24;;;;;;;10.43;4.57;;;6.90;99.90;;;;;;4978134;28;20435;-73
2024/03/06 04:16:50;;;;;;;10.60;5.22;;;6.90;99.90;;;;;;4978590;28;20490;-73
2024/03/06 04:19:15;;;;;;;10.05;4.88;;;6.90;99.90;;;;;;4978143;28;20018;-73
2024/03/06 04:21:44;;;;;;;7.65;5.03;;;6.90;99.90;;;;;;4978689;28;20029;-74
2024/03/06 04:24:10;;;;;;;9.40;5.00;;;6.90;99.90;;;;;;4978086;28;20076;-74
2024/03/06 04:26:35;;;;;;;9.50;5.47;;;6.90;99.90;;;;;;4978423;28;20121;-73
2024/03/06 04:29:02;;;;;;;8.60;4.70;;;6.90;99.90;;;;;;4978489;28;20037;-73
2024/03/06 04:31:28;;;;;;;9.77;4.97;;;6.90;99.90;;;;;;4995272;28;20033;-73
2024/03/06 04:33:54;;;;;;;9.90;5.28;;;6.90;99.90;;;;;;4977864;28;20141;-73
2024/03/06 04:36:19;;;;;;;7.20;4.57;;;6.90;99.90;;;;;;4995320;28;20030;-73
2024/03/06 04:38:45;;;;;;;8.50;5.50;;;6.90;99.90;;;;;;4978278;28;20109;-73
2024/03/06 04:41:10;;;;;;;9.30;5.00;;;6.90;99.90;;;;;;4977704;28;20368;-74
2024/03/06 04:43:36;;;;;;;9.20;4.95;;;6.90;99.90;;;;;;4978200;28;20023;-73
2024/03/06 04:46:02;;;;;;;7.25;4.43;;;6.90;99.90;;;;;;4983901;28;20046;-73
2024/03/06 04:48:28;;;;;;;5.97;3.88;;;6.90;99.90;;;;;;4993867;28;20386;-74
2024/03/06 04:50:53;;;;;;;6.28;3.95;;;6.90;99.90;;;;;;4994268;28;20027;-73
2024/03/06 04:53:20;;;;;;;11.57;4.43;;;6.90;99.90;;;;;;4993864;28;20026;-74
2024/03/06 04:55:46;;;;;;;7.47;3.78;;;6.80;99.90;;;;;;4994476;28;20038;-74
2024/03/06 04:58:12;;;;;;;6.45;3.90;;;6.80;99.90;;;;;;4993698;28;20062;-74
2024/03/06 05:00:38;;;;;;;7.38;3.90;;;6.80;99.90;;;;;;4994191;28;20034;-74
2024/03/06 05:03:04;;;;;;;8.45;4.25;;;6.80;99.90;;;;;;4994035;28;20027;-74
2024/03/06 05:05:29;;;;;;;6.25;3.63;;;6.80;99.90;;;;;;4993498;28;20034;-74
2024/03/06 05:07:55;;;;;;;6.85;3.58;;;6.80;99.90;;;;;;4994077;28;20022;-73
2024/03/06 05:10:21;;;;;;;6.97;3.80;;;6.90;99.90;;;;;;4993404;28;20030;-74
2024/03/06 05:12:47;;;;;;;7.88;3.70;;;6.90;99.90;;;;;;4994760;28;20414;-74
2024/03/06 05:15:12;;;;;;;5.80;3.42;;;6.90;99.90;;;;;;4994318;28;20479;-75
2024/03/06 05:17:38;;;;;;;7.55;3.97;;;6.90;99.90;;;;;;4993820;28;20482;-74
2024/03/06 05:20:04;;;;;;;6.50;3.42;;;6.90;99.90;;;;;;4994844;28;20022;-74
2024/03/06 05:22:30;;;;;;;7.40;4.00;;;6.90;99.90;;;;;;4993236;28;20100;-74
2024/03/06 05:24:56;;;;;;;6.65;3.83;;;6.90;99.90;;;;;;4994640;28;20038;-74
2024/03/06 05:27:22;;;;;;;8.45;4.10;;;6.90;99.90;;;;;;4993136;28;20125;-73
2024/03/06 05:29:47;;;;;;;6.70;3.40;;;6.90;99.90;;;;;;4994765;28;20080;-74
2024/03/06 05:32:13;;;;;;;7.70;3.33;;;7.00;99.90;;;;;;4993108;28;20032;-75
2024/03/06 05:34:39;;;;;;;8.50;3.15;;;6.90;99.90;;;;;;4992895;28;20054;-74
2024/03/06 05:37:05;;;;;;;4.03;2.95;;;6.90;99.90;;;;;;4993540;28;20068;-74
2024/03/06 05:39:31;;;;;;;7.18;3.80;;;6.90;99.90;;;;;;4992903;28;20030;-74
2024/03/06 05:42:04;;;;;;;6.32;3.50;;;6.90;99.90;;;;;;4993398;28;20022;-75
2024/03/06 05:44:31;;;;;;;6.60;2.78;;;7.00;99.90;;;;;;4977617;28;20471;-75
2024/03/06 05:46:58;;;;;;;7.93;3.35;;;7.00;99.90;;;;;;4994121;28;20022;-76
2024/03/06 05:49:23;;;;;;;5.07;2.83;;;7.00;99.90;;;;;;4993557;28;20030;-76
2024/03/06 05:51:49;;;;;;;5.82;3.13;;;7.00;99.90;;;;;;4976794;28;20398;-75
2024/03/06 05:54:15;;;;;;;4.82;3.10;;;7.00;99.90;;;;;;4976525;28;20037;-75
2024/03/06 05:56:42;;;;;;;6.13;3.10;;;7.00;99.90;;;;;;4976830;28;20041;-75
2024/03/06 05:59:08;;;;;;;5.78;3.05;;;7.00;99.90;;;;;;4976843;28;20050;-75
2024/03/06 06:01:34;;;;;;;6.38;3.20;;;7.00;99.90;;;;;;4976334;28;20518;-75
2024/03/06 06:04:01;;;;;;;8.35;3.47;;;7.00;99.90;;;;;;4994100;28;20106;-74
2024/03/06 06:06:26;;;;;;;9.50;3.47;;;7.00;99.90;;;;;;4975973;28;20482;-75
2024/03/06 06:08:53;;;;;;;5.65;3.33;;;7.00;99.90;;;;;;4976498;28;20037;-75
2024/03/06 06:11:19;;;;;;;7.35;3.10;;;7.00;99.90;;;;;;4993314;28;20030;-75
2024/03/06 06:13:44;;;;;;;6.07;4.00;;;7.00;99.90;;;;;;4976550;28;20045;-75
2024/03/06 06:16:10;;;;;;;6.13;3.42;;;7.10;99.90;;;;;;4976581;28;20038;-76
2024/03/06 06:18:35;;;;;;;6.13;3.70;;;7.00;99.90;;;;;;4976171;28;20484;-75
2024/03/06 06:21:01;;;;;;;7.43;3.30;;;7.10;99.90;;;;;;4994092;28;20397;-75
2024/03/06 06:23:27;;;;;;;5.82;3.22;;;7.10;99.90;;;;;;4993264;28;20543;-75
2024/03/06 06:25:52;;;;;;;6.68;3.15;;;7.10;99.90;;;;;;4976362;28;20038;-76
2024/03/06 06:28:18;;;;;;;6.60;3.63;;;7.10;99.90;;;;;;4993606;28;20060;-81
2024/03/06 06:30:44;;;;;;;6.63;3.63;;;7.10;99.90;;;;;;4975657;28;20114;-75
2024/03/06 06:33:09;;;;;;;7.47;3.38;;;7.10;99.90;;;;;;4992680;28;20097;-76
2024/03/06 06:35:35;;;;;;;6.47;3.45;;;7.20;99.90;;;;;;4975581;28;20140;-75
2024/03/06 06:38:01;;;;;;;8.18;4.13;;;7.20;99.90;;;;;;4993628;28;20026;-75
2024/03/06 06:40:30;;;;;;;5.68;3.53;;;7.20;99.90;;;;;;4975774;28;20061;-76
2024/03/06 06:42:55;;;;;;;5.75;3.20;;;7.20;99.90;;;;;;4976510;28;20031;-75
2024/03/06 06:45:24;;;;;;;5.07;3.13;;;7.20;99.90;;;;;;4993140;28;20490;-76
2024/03/06 06:47:51;;;;;;;5.90;3.60;;;7.20;99.90;;;;;;4976307;28;20479;-75
2024/03/06 06:50:17;;;;;;;6.55;3.75;;;7.20;99.90;;;;;;4993270;28;20464;-80
2024/03/06 06:52:42;;;;;;;7.10;4.25;;;7.30;99.90;;;;;;4975591;28;20057;-75
2024/03/06 06:55:11;;;;;;;6.15;3.42;;;7.20;99.90;;;;;;4975942;28;20037;-75
2024/03/06 06:57:38;;;;;;;6.93;3.97;;;7.30;99.90;;;;;;4975163;28;20042;-75
2024/03/06 07:00:13;;;;;;;9.80;3.90;;;7.20;99.90;;;;;;4993240;28;20463;-75
2024/03/06 07:02:40;;;;;;;6.47;3.60;;;7.20;99.90;;;;;;4992773;28;20030;-75
2024/03/06 07:05:08;;;;;;;5.80;3.78;;;7.20;99.90;;;;;;4992992;28;20038;-75
2024/03/06 07:07:34;;;;;;;6.05;3.85;;;7.30;99.90;;;;;;4992972;28;20030;-75
2024/03/06 07:09:59;;;;;;;6.55;4.10;;;7.30;99.90;;;;;;4976022;28;20498;-75
2024/03/06 07:12:25;;;;;;;7.28;4.15;;;7.30;99.90;;;;;;4993111;28;20065;-75
2024/03/06 07:14:50;;;;;;;10.20;4.60;;;7.30;99.90;;;;;;4976069;28;20397;-76
2024/03/06 07:17:16;;;;;;;9.43;4.18;;;7.30;99.90;;;;;;4993275;28;20031;-75
2024/03/06 07:19:42;;;;;;;8.77;3.88;;;7.40;99.90;;;;;;4992759;28;20031;-75
2024/03/06 07:22:07;;;;;;;6.43;4.03;;;7.30;99.90;;;;;;4975974;28;20467;-75
2024/03/06 07:24:33;;;;;;;7.03;4.32;;;7.30;99.90;;;;;;4992956;28;20038;-75
2024/03/06 07:27:01;;;;;;;10.70;4.72;;;7.40;99.90;;;;;;4975754;28;20501;-75
2024/03/06 07:29:27;;;;;;;8.35;4.45;;;7.40;99.90;;;;;;4975253;28;20022;-75
2024/03/06 07:31:53;;;;;;;8.75;4.43;;;7.40;99.90;;;;;;4975666;28;20031;-75
2024/03/06 07:34:21;;;;;;;5.88;3.92;;;7.40;99.90;;;;;;4975161;28;20086;-82
2024/03/06 07:36:47;;;;;;;7.60;3.95;;;7.50;99.90;;;;;;4975961;28;20030;-75
2024/03/06 07:39:15;;;;;;;5.90;3.80;;;7.50;99.90;;;;;;4993104;28;20037;-75
2024/03/06 07:41:41;;;;;;;8.18;4.70;;;7.60;99.90;;;;;;4975239;28;20085;-75
2024/03/06 07:44:08;;;;;;;11.48;5.63;;;7.60;99.90;;;;;;4977398;28;20030;-75
2024/03/06 07:46:34;;;;;;;9.80;5.10;;;7.60;99.90;;;;;;4978945;28;20038;-74
2024/03/06 07:49:00;;;;;;;12.63;4.60;;;7.70;99.90;;;;;;4979317;28;20026;-75
2024/03/06 07:51:26;;;;;;;7.50;4.10;;;7.70;99.90;;;;;;4978864;28;20072;-75
2024/03/06 07:53:52;;;;;;;8.20;4.32;;;7.70;99.90;;;;;;4979425;28;20026;-75
2024/03/06 07:56:18;;;;;;;7.97;3.65;;;7.70;99.90;;;;;;4978877;28;20030;-75
2024/03/06 07:58:43;;;;;;;10.02;3.88;;;7.70;99.90;;;;;;4996142;28;20030;-75
2024/03/06 08:01:10;;;;;;;5.38;3.15;;;7.70;99.90;;;;;;4979044;28;20031;-75
2024/03/06 08:03:39;;;;;;;7.57;3.60;;;7.80;99.90;;;;;;4996021;28;20026;-75
2024/03/06 08:06:05;;;;;;;7.72;3.70;;;7.80;99.90;;;;;;4978964;28;20497;-75
2024/03/06 08:08:31;;;;;;;6.70;3.90;;;7.80;99.90;;;;;;4978535;28;20029;-75
2024/03/06 08:10:57;;;;;;;6.57;3.97;;;7.80;99.90;;;;;;4978986;28;20023;-75
2024/03/06 08:13:23;;;;;;;8.73;4.35;;;7.90;99.90;;;;;;4978407;28;20085;-76
2024/03/06 08:15:48;;;;;;;8.00;4.57;;;7.90;99.90;;;;;;4996215;28;20034;-75
2024/03/06 08:18:14;;;;;;;7.97;4.32;;;7.90;99.90;;;;;;4978656;28;20077;-75
2024/03/06 08:20:40;;;;;;;8.38;4.50;;;7.90;99.90;;;;;;4977837;28;20022;-75
2024/03/06 08:23:08;;;;;;;7.68;3.38;;;8.00;99.90;;;;;;4996050;28;20026;-75
2024/03/06 08:25:33;;;;;;;7.65;3.75;;;8.00;99.90;;;;;;4978139;28;20037;-75
2024/03/06 08:27:59;;;;;;;8.70;3.85;;;8.00;99.90;;;;;;4978539;28;20026;-75
2024/03/06 08:30:25;;;;;;;5.47;3.20;;;8.00;99.90;;;;;;4995460;28;20030;-76
2024/03/06 08:32:51;;;;;;;7.25;3.90;;;8.10;99.90;;;;;;4978187;28;20622;-75
2024/03/06 08:35:18;;;;;;;8.35;3.50;;;8.00;99.90;;;;;;4977951;28;20572;-74
2024/03/06 08:37:43;;;;;;;7.03;3.28;;;8.00;99.90;;;;;;4978121;28;20031;-74
2024/03/06 08:40:14;;;;;;;9.15;4.70;;;8.00;99.90;;;;;;4995818;28;20030;-74
2024/03/06 08:42:41;;;;;;;5.38;3.22;;;8.00;99.90;;;;;;4977847;28;20033;-75
2024/03/06 08:45:07;;;;;;;7.00;3.25;;;8.10;99.90;;;;;;4995746;28;20026;-74
2024/03/06 08:47:36;;;;;;;7.60;3.00;;;8.00;99.90;;;;;;4977900;28;20116;-75
2024/03/06 08:50:03;;;;;;;4.90;3.53;;;8.10;99.90;;;;;;4978430;28;20026;-74
2024/03/06 08:52:32;;;;;;;7.38;3.08;;;8.20;99.90;;;;;;4977681;28;20383;-75
2024/03/06 08:54:58;;;;;;;6.10;3.65;;;8.30;99.90;;;;;;4995083;28;20026;-74
2024/03/06 08:57:26;;;;;;;5.13;3.30;;;8.30;99.90;;;;;;4995414;28;20113;-75
2024/03/06 08:59:52;;;;;;;5.55;3.05;;;8.30;99.90;;;;;;4978105;28;20038;-75
2024/03/06 09:02:19;;;;;;;6.63;3.28;;;8.30;99.90;;;;;;4995683;28;20026;-74
2024/03/06 09:04:46;;;;;;;5.03;3.22;;;8.40;99.90;;;;;;4977174;28;20042;-75
2024/03/06 09:07:12;;;;;;;6.40;3.58;;;8.40;99.90;;;;;;4977768;28;20374;-74
2024/03/06 09:09:38;;;;;;;5.78;4.13;;;8.40;99.90;;;;;;4994549;28;20037;-75
2024/03/06 09:12:05;;;;;;;5.65;3.90;;;8.40;99.90;;;;;;4977806;28;20026;-74
2024/03/06 09:14:34;;;;;;;6.63;3.63;;;8.50;99.90;;;;;;4994438;28;20030;-75
2024/03/06 09:17:00;;;;;;;5.88;3.78;;;8.60;99.90;;;;;;4995145;28;20129;-75
2024/03/06 09:19:26;;;;;;;8.15;4.43;;;8.60;99.90;;;;;;4994737;28;20024;-81
2024/03/06 09:21:51;;;;;;;7.95;4.30;;;8.60;99.90;;;;;;4977523;28;20560;-75
2024/03/06 09:24:17;;;;;;;8.65;4.35;;;8.70;99.90;;;;;;4977728;28;20042;-75
2024/03/06 09:26:47;;;;;;;8.30;4.60;;;8.80;99.90;;;;;;4994322;28;20069;-75
2024/03/06 09:29:12;;;;;;;7.65;4.22;;;8.80;99.90;;;;;;4977593;28;20037;-75
2024/03/06 09:31:38;;;;;;;5.63;3.90;;;8.90;99.90;;;;;;4976905;28;20026;-75
2024/03/06 09:34:03;;;;;;;9.68;4.22;;;8.90;99.90;;;;;;4976884;28;20054;-74
2024/03/06 09:36:29;;;;;;;9.02;4.93;;;9.00;99.90;;;;;;4993873;28;20150;-75
2024/03/06 09:38:55;;;;;;;6.43;4.15;;;9.10;99.90;;;;;;4977422;28;20028;-75
2024/03/06 09:41:22;;;;;;;8.45;4.20;;;9.10;99.90;;;;;;4977138;28;20037;-75
2024/03/06 09:43:48;;;;;;;7.55;4.38;;;9.10;99.90;;;;;;4976766;28;20038;-75
2024/03/06 09:46:14;;;;;;;5.80;3.72;;;9.10;99.90;;;;;;4976959;28;20578;-75
2024/03/06 09:48:47;;;;;;;9.43;4.75;;;9.20;99.90;;;;;;4976608;28;20475;-74
2024/03/06 09:51:13;;;;;;;7.90;4.47;;;9.20;99.90;;;;;;4994257;28;20080;-75
2024/03/06 09:53:40;;;;;;;11.07;4.22;;;9.30;99.90;;;;;;4976584;28;20053;-75
2024/03/06 09:56:08;;;;;;;8.52;4.30;;;9.20;99.90;;;;;;4976974;28;20031;-74
2024/03/06 09:58:34;;;;;;;8.75;4.07;;;9.30;99.90;;;;;;4976446;28;20030;-75
2024/03/06 10:01:03;;;;;;;6.03;3.90;;;9.30;99.90;;;;;;4976955;28;20029;-75
2024/03/06 10:03:29;;;;;;;6.45;4.28;;;9.40;99.90;;;;;;4976307;28;20045;-78
2024/03/06 10:05:55;;;;;;;8.38;4.22;;;9.50;99.90;;;;;;4976243;28;20038;-76
2024/03/06 10:08:22;;;;;;;8.15;4.43;;;9.60;99.90;;;;;;4994182;28;20053;-75
2024/03/06 10:10:49;;;;;;;9.95;4.38;;;9.60;99.90;;;;;;4976175;28;20481;-75
2024/03/06 10:13:17;;;;;;;6.85;3.83;;;9.60;99.90;;;;;;4976643;28;20026;-75
2024/03/06 10:15:55;;;;;;;6.28;4.35;;;9.70;99.90;;;;;;4976277;28;20093;-77
2024/03/06 10:18:21;;;;;;;9.05;4.90;;;9.60;99.90;;;;;;4976728;28;20030;-76
2024/03/06 10:20:46;;;;;;;8.50;4.97;;;9.60;99.90;;;;;;4975823;28;20360;-75
2024/03/06 10:23:12;;;;;;;11.15;5.10;;;9.70;99.90;;;;;;4993949;28;20356;-75
2024/03/06 10:25:38;;;;;;;9.10;4.70;;;9.80;99.90;;;;;;4975989;28;20062;-76
2024/03/06 10:28:11;;;;;;;8.02;4.63;;;9.70;99.90;;;;;;4976554;28;20026;-75
2024/03/06 10:30:41;;;;;;;9.15;4.63;;;9.70;99.90;;;;;;4993393;28;20494;-76
2024/03/06 10:33:08;;;;;;;8.10;4.78;;;9.70;99.90;;;;;;4975962;28;20114;-76
2024/03/06 10:35:34;;;;;;;6.38;4.22;;;9.60;99.90;;;;;;4993175;28;20026;-76
2024/03/06 10:38:05;;;;;;;10.68;4.45;;;9.70;99.90;;;;;;4976290;28;20033;-75
2024/03/06 10:40:51;;;;;;;8.25;4.15;;;9.70;99.90;;;;;;4976006;28;20049;-82
2024/03/06 10:43:18;;;;;;;9.75;4.63;;;9.70;99.90;;;;;;4976178;28;20502;-75
2024/03/06 10:45:56;;;;;;;8.63;4.65;;;9.70;99.90;;;;;;4975604;28;20041;-75
2024/03/06 10:48:21;;;;;;;9.13;4.50;;;9.80;99.90;;;;;;4976358;28;20052;-75
2024/03/06 10:50:49;;;;;;;7.05;4.57;;;9.80;99.90;;;;;;4975608;28;20121;-75
2024/03/06 10:53:16;;;;;;;7.00;3.97;;;9.80;99.90;;;;;;4976077;28;20026;-75
2024/03/06 10:55:45;;;;;;;7.95;4.53;;;9.80;99.90;;;;;;4975622;28;20030;-76
2024/03/06 10:58:12;;;;;;;8.50;4.38;;;9.70;99.90;;;;;;4976129;28;20027;-75
2024/03/06 11:00:40;;;;;;;8.80;5.10;;;9.70;99.90;;;;;;4975407;28;20382;-76
2024/03/06 11:03:08;;;;;;;6.70;4.55;;;9.70;99.90;;;;;;4975750;28;20479;-76
2024/03/06 11:05:41;;;;;;;8.77;3.83;;;9.80;99.90;;;;;;4975528;28;20034;-76
2024/03/06 11:08:10;;;;;;;9.27;4.78;;;9.80;99.90;;;;;;4976281;28;20054;-75
2024/03/06 11:10:46;;;;;;;8.93;4.65;;;9.70;99.90;;;;;;4975480;28;20451;-76
2024/03/06 11:13:22;;;;;;;8.73;4.57;;;9.70;99.90;;;;;;4993480;28;20030;-74
2024/03/06 11:15:50;;;;;;;9.73;4.78;;;9.60;99.90;;;;;;4975442;28;20121;-75
2024/03/06 11:18:33;;;;;;;11.88;5.18;;;9.60;99.90;;;;;;4995341;28;20033;-75
2024/03/06 11:21:19;;;;;;;11.10;4.43;;;9.60;99.90;;;;;;4997454;28;20089;-76
2024/03/06 11:24:19;;;;;;;9.27;4.50;;;9.60;99.90;;;;;;4978804;28;20026;-76
2024/03/06 11:27:00;;;;;;;10.85;4.75;;;9.60;99.90;;;;;;4979256;28;20442;-75
2024/03/06 11:29:28;;;;;;;8.23;4.35;;;9.60;99.90;;;;;;4979796;28;20033;-75
2024/03/06 11:32:07;;;;;;;7.55;3.88;;;9.60;99.90;;;;;;4996881;28;20093;-75
2024/03/06 11:34:34;;;;;;;9.45;4.32;;;9.50;99.90;;;;;;4996442;28;20423;-76
2024/03/06 11:37:04;;;;;;;6.97;4.07;;;9.50;99.90;;;;;;4979535;28;20050;-75
2024/03/06 11:39:34;;;;;;;6.60;4.32;;;9.60;99.90;;;;;;4979499;28;20160;-74
2024/03/06 11:42:00;;;;;;;6.97;3.88;;;9.60;99.90;;;;;;4979590;28;20033;-75
2024/03/06 11:44:28;;;;;;;6.63;3.67;;;9.60;99.90;;;;;;4979389;28;20026;-74
2024/03/06 11:47:01;;;;;;;7.68;4.18;;;9.70;99.90;;;;;;4996191;28;20125;-74
2024/03/06 11:49:33;;;;;;;5.60;3.88;;;9.70;99.90;;;;;;4996811;28;20030;-73
2024/03/06 11:52:10;;;;;;;6.07;3.50;;;9.70;99.90;;;;;;4978982;28;20034;-74
2024/03/06 11:54:37;;;;;;;8.88;4.10;;;9.70;99.90;;;;;;4996188;28;20019;-75
2024/03/06 11:57:04;;;;;;;9.98;3.83;;;9.70;99.90;;;;;;4996895;28;20073;-74
2024/03/06 11:59:35;;;;;;;7.35;4.03;;;9.70;99.90;;;;;;4979124;28;20033;-74
2024/03/06 12:02:05;;;;;;;11.17;3.97;;;9.70;99.90;;;;;;4996578;28;20022;-74
2024/03/06 12:04:33;;;;;;;9.43;3.78;;;9.80;99.90;;;;;;4979086;28;20284;-74
2024/03/06 12:06:59;;;;;;;4.85;3.50;;;9.90;99.90;;;;;;4978512;28;20034;-74
2024/03/06 12:09:26;;;;;;;6.05;3.60;;;9.90;99.90;;;;;;4996411;28;20482;-74
2024/03/06 12:11:52;;;;;;;8.05;3.65;;;9.90;99.90;;;;;;4978525;28;20026;-74
2024/03/06 12:14:19;;;;;;;7.82;4.10;;;9.80;99.90;;;;;;4978897;28;20471;-75
2024/03/06 12:16:55;;;;;;;8.10;3.53;;;9.90;99.90;;;;;;4978370;28;20034;-76
2024/03/06 12:19:21;;;;;;;5.72;3.30;;;9.80;99.90;;;;;;4996257;28;20377;-75
2024/03/06 12:21:47;;;;;;;7.18;3.80;;;9.80;99.90;;;;;;4978150;28;20029;-75
2024/03/06 12:24:18;;;;;;;5.03;3.30;;;9.80;99.90;;;;;;4978596;28;20121;-75
2024/03/06 12:26:44;;;;;;;5.70;3.40;;;10.00;99.90;;;;;;4978074;28;20049;-74
2024/03/06 12:29:11;;;;;;;4.93;3.15;;;10.00;99.90;;;;;;4977421;28;20026;-75
2024/03/06 12:31:42;;;;;;;6.45;3.40;;;10.10;99.90;;;;;;4995703;28;20105;-81
2024/03/06 12:34:09;;;;;;;6.20;3.60;;;10.20;99.90;;;;;;4974951;28;20054;-76
2024/03/06 12:36:35;;;;;;;6.63;3.38;;;10.20;99.90;;;;;;4975350;28;20054;-75
2024/03/06 12:39:03;;;;;;;4.30;3.22;;;10.20;99.90;;;;;;4974434;28;20026;-75
2024/03/06 12:41:29;;;;;;;4.93;3.20;;;10.30;99.90;;;;;;4976223;28;20027;-75
2024/03/06 12:43:56;;;;;;;5.13;3.05;;;10.30;99.90;;;;;;4974491;28;20022;-75
2024/03/06 12:46:23;;;;;;;7.68;3.03;;;10.40;99.90;;;;;;4974653;28;20035;-74
2024/03/06 12:48:49;;;;;;;5.60;2.92;;;10.30;99.90;;;;;;4974507;28;20077;-75
2024/03/06 12:51:14;;;;;;;6.32;3.53;;;10.40;99.90;;;;;;4976235;28;20483;-75
2024/03/06 12:53:40;;;;;;;5.28;2.60;;;10.30;99.90;;;;;;4974480;28;20019;-75
2024/03/06 12:56:07;;;;;;;5.78;3.10;;;10.30;99.90;;;;;;4974547;28;20038;-75
2024/03/06 12:58:35;;;;;;;7.65;3.03;;;10.30;99.90;;;;;;4976103;28;20073;-75